createdAt,value
2018-10-18T00:00:31.422Z,38.97
2018-10-18T00:03:00.137Z,35.90
2018-10-18T00:05:28.683Z,40.40
2018-10-18T00:07:57.310Z,34.87
2018-10-18T00:10:25.747Z,38.63
2018-10-18T00:12:54.261Z,35.80
2018-10-18T00:15:22.723Z,38.67
2018-10-18T00:17:51.390Z,40.03
2018-10-18T00:20:19.816Z,40.47
2018-10-18T00:22:48.295Z,37.50
2018-10-18T00:25:16.977Z,40.10
2018-10-18T00:27:45.442Z,42.10
2018-10-18T00:30:14.811Z,43.53
2018-10-18T00:32:44.062Z,38.07
2018-10-18T00:35:12.740Z,40.27
2018-10-18T00:37:41.231Z,38.47
2018-10-18T00:40:11.079Z,37.53
2018-10-18T00:42:39.669Z,39.80
2018-10-18T00:45:09.035Z,37.83
2018-10-18T00:47:37.551Z,37.47
2018-10-18T00:50:07.183Z,38.17
2018-10-18T00:52:35.552Z,38.90
2018-10-18T00:55:04.069Z,42.40
2018-10-18T00:57:32.519Z,39.37
2018-10-18T01:00:01.022Z,38.47
2018-10-18T01:02:29.389Z,37.03
2018-10-18T01:04:57.817Z,39.23
2018-10-18T01:07:26.239Z,42.17
2018-10-18T01:09:54.676Z,40.63
2018-10-18T01:12:23.178Z,35.70
2018-10-18T01:14:51.607Z,36.03
2018-10-18T01:17:20.061Z,36.70
2018-10-18T01:19:48.500Z,38.47
2018-10-18T01:22:16.977Z,45.47
2018-10-18T01:24:45.439Z,41.37
2018-10-18T01:27:13.925Z,39.27
2018-10-18T01:29:42.397Z,39.43
2018-10-18T01:32:10.983Z,40.43
2018-10-18T01:34:39.426Z,41.37
2018-10-18T01:37:07.906Z,45.20
2018-10-18T01:39:36.332Z,39.57
2018-10-18T01:42:05.362Z,36.83
2018-10-18T01:44:33.843Z,35.83
2018-10-18T01:47:03.061Z,40.43
2018-10-18T01:49:31.578Z,40.10
2018-10-18T01:52:00.028Z,42.37
2018-10-18T01:54:28.466Z,40.80
2018-10-18T01:56:56.927Z,44.33
2018-10-18T01:59:25.403Z,40.67
2018-10-18T02:01:53.928Z,38.90
2018-10-18T02:04:22.471Z,41.53
2018-10-18T02:06:50.908Z,36.70
2018-10-18T02:09:19.390Z,38.83
2018-10-18T02:11:47.834Z,37.43
2018-10-18T02:14:16.291Z,40.40
2018-10-18T02:16:44.771Z,40.53
2018-10-18T02:19:13.265Z,41.67
2018-10-18T02:21:41.733Z,41.00
2018-10-18T02:24:10.322Z,44.37
2018-10-18T02:26:38.660Z,41.60
2018-10-18T02:29:07.160Z,42.37
2018-10-18T02:31:35.619Z,40.37
2018-10-18T02:34:04.087Z,43.30
2018-10-18T02:36:32.595Z,38.27
2018-10-18T02:39:01.056Z,40.20
2018-10-18T02:41:29.501Z,39.47
2018-10-18T02:43:57.929Z,39.53
2018-10-18T02:46:26.380Z,40.03
2018-10-18T02:48:54.835Z,43.07
2018-10-18T02:51:23.308Z,40.10
2018-10-18T02:53:51.799Z,43.63
2018-10-18T02:56:20.278Z,39.80
2018-10-18T02:58:48.814Z,36.67
2018-10-18T03:01:17.228Z,34.97
2018-10-18T03:03:45.680Z,34.87
2018-10-18T03:06:14.293Z,31.00
2018-10-18T03:08:42.602Z,38.00
2018-10-18T03:11:11.041Z,34.07
2018-10-18T03:13:39.542Z,36.63
2018-10-18T03:16:08.002Z,37.00
2018-10-18T03:18:36.449Z,42.17
2018-10-18T03:21:04.909Z,38.43
2018-10-18T03:23:33.355Z,40.03
2018-10-18T03:26:01.795Z,37.43
2018-10-18T03:28:30.209Z,38.67
2018-10-18T03:30:58.659Z,38.17
2018-10-18T03:33:27.097Z,38.73
2018-10-18T03:35:55.630Z,39.30
2018-10-18T03:38:23.981Z,43.00
2018-10-18T03:40:52.421Z,40.13
2018-10-18T03:43:20.845Z,38.50
2018-10-18T03:45:49.401Z,40.77
2018-10-18T03:48:17.931Z,42.03
2018-10-18T03:50:46.333Z,40.73
2018-10-18T03:53:14.775Z,41.63
2018-10-18T03:55:43.248Z,40.03
2018-10-18T03:58:11.693Z,39.03
2018-10-18T04:00:40.170Z,37.43
2018-10-18T04:03:08.635Z,38.17
2018-10-18T04:05:37.179Z,35.10
2018-10-18T04:08:05.966Z,37.27
2018-10-18T04:10:34.379Z,35.27
2018-10-18T04:13:02.883Z,37.00
2018-10-18T04:15:31.341Z,35.20
2018-10-18T04:17:59.884Z,34.60
2018-10-18T04:20:28.269Z,33.40
2018-10-18T04:22:56.765Z,33.70
2018-10-18T04:25:25.265Z,33.57
2018-10-18T04:27:53.712Z,37.53
2018-10-18T04:30:22.343Z,39.70
2018-10-18T04:32:50.634Z,39.67
2018-10-18T04:35:19.109Z,41.30
2018-10-18T04:37:47.553Z,38.00
2018-10-18T04:40:16.091Z,39.30
2018-10-18T04:42:44.550Z,40.50
2018-10-18T04:45:13.101Z,40.43
2018-10-18T04:47:41.663Z,35.67
2018-10-18T04:50:10.479Z,34.57
2018-10-18T04:52:38.951Z,36.77
2018-10-18T04:55:07.822Z,36.30
2018-10-18T04:57:36.193Z,41.97
2018-10-18T05:00:04.805Z,45.33
2018-10-18T05:02:33.301Z,39.33
2018-10-18T05:05:13.044Z,41.30
2018-10-18T05:07:41.510Z,41.20
2018-10-18T05:10:09.951Z,37.27
2018-10-18T05:12:39.262Z,38.83
2018-10-18T05:15:08.489Z,40.27
2018-10-18T05:17:37.023Z,33.77
2018-10-18T05:20:06.037Z,39.23
2018-10-18T05:22:34.584Z,40.40
2018-10-18T05:25:03.096Z,36.60
2018-10-18T05:27:31.648Z,36.77
2018-10-18T05:30:00.064Z,37.97
2018-10-18T05:32:28.507Z,39.17
2018-10-18T05:34:56.953Z,45.37
2018-10-18T05:37:25.421Z,39.90
2018-10-18T05:39:53.884Z,42.50
2018-10-18T05:42:22.373Z,40.43
2018-10-18T05:44:50.846Z,39.93
2018-10-18T05:47:19.461Z,40.90
2018-10-18T05:49:47.883Z,38.53
2018-10-18T05:52:16.364Z,36.10
2018-10-18T05:54:44.805Z,36.23
2018-10-18T05:57:13.249Z,44.10
2018-10-18T05:59:41.716Z,53.80
2018-10-18T06:02:10.193Z,52.20
2018-10-18T06:04:38.636Z,60.87
2018-10-18T06:07:07.227Z,72.33
2018-10-18T06:09:35.668Z,76.23
2018-10-18T06:12:04.380Z,72.53
2018-10-18T06:14:32.830Z,67.53
2018-10-18T06:17:01.326Z,74.77
2018-10-18T06:19:29.790Z,62.03
2018-10-18T06:21:58.313Z,58.60
2018-10-18T06:24:26.807Z,52.00
2018-10-18T06:26:55.266Z,45.27
2018-10-18T06:29:23.750Z,43.97
2018-10-18T06:31:52.186Z,47.20
2018-10-18T06:34:20.676Z,47.10
2018-10-18T06:36:49.150Z,42.33
2018-10-18T06:39:17.682Z,47.10
2018-10-18T06:41:46.125Z,45.10
2018-10-18T06:44:14.595Z,55.70
2018-10-18T06:46:43.172Z,43.07
2018-10-18T06:49:11.727Z,62.10
2018-10-18T06:51:40.159Z,48.83
2018-10-18T06:54:08.684Z,39.30
2018-10-18T06:56:37.087Z,44.80
2018-10-18T06:59:05.578Z,39.23
2018-10-18T07:01:34.080Z,40.47
2018-10-18T07:04:02.545Z,33.70
2018-10-18T07:06:30.989Z,35.43
2018-10-18T07:08:59.530Z,35.53
2018-10-18T07:11:27.946Z,36.57
2018-10-18T07:13:56.435Z,33.43
2018-10-18T07:16:24.917Z,34.80
2018-10-18T07:18:53.464Z,30.67
2018-10-18T07:21:21.984Z,32.83
2018-10-18T07:23:50.463Z,25.93
2018-10-18T07:26:18.979Z,23.30
2018-10-18T07:28:47.605Z,20.33
2018-10-18T07:31:16.047Z,23.63
2018-10-18T07:33:44.563Z,24.73
2018-10-18T07:36:13.176Z,21.27
2018-10-18T07:38:41.550Z,23.63
2018-10-18T07:41:10.108Z,23.17
2018-10-18T07:43:38.612Z,24.57
2018-10-18T07:46:07.155Z,22.90
2018-10-18T07:48:35.632Z,22.10
2018-10-18T07:51:04.105Z,22.10
2018-10-18T07:53:32.735Z,22.03
2018-10-18T07:56:01.090Z,22.67
2018-10-18T07:58:29.549Z,22.47
2018-10-18T08:00:58.087Z,21.90
2018-10-18T08:03:26.532Z,21.27
2018-10-18T08:05:54.999Z,21.87
2018-10-18T08:08:23.469Z,22.53
2018-10-18T08:10:52.010Z,22.77
2018-10-18T08:13:20.554Z,22.13
2018-10-18T08:15:48.947Z,21.97
2018-10-18T08:18:17.426Z,21.30
2018-10-18T08:20:45.889Z,21.67
2018-10-18T08:23:14.383Z,21.33
2018-10-18T08:25:42.903Z,22.33
2018-10-18T08:28:11.409Z,22.80
2018-10-18T08:30:39.913Z,23.10
2018-10-18T08:33:08.496Z,23.00
2018-10-18T08:35:36.985Z,21.57
2018-10-18T08:38:05.970Z,22.50
2018-10-18T08:40:34.387Z,21.87
2018-10-18T08:43:02.977Z,22.07
2018-10-18T08:45:31.486Z,22.03
2018-10-18T08:48:00.005Z,22.60
2018-10-18T08:50:28.482Z,22.10
2018-10-18T08:52:56.947Z,21.97
2018-10-18T08:55:25.428Z,22.23
2018-10-18T08:57:53.881Z,22.40
2018-10-18T09:00:22.322Z,22.80
2018-10-18T09:02:50.821Z,21.00
2018-10-18T09:05:19.282Z,22.63
2018-10-18T09:07:47.733Z,21.70
2018-10-18T09:10:16.188Z,22.33
2018-10-18T09:12:44.720Z,22.80
2018-10-18T09:15:13.206Z,22.33
2018-10-18T09:17:41.681Z,22.42
2018-10-18T09:20:10.187Z,22.13
2018-10-18T09:22:38.642Z,23.10
2018-10-18T09:25:08.173Z,21.90
2018-10-18T09:27:36.640Z,22.60
2018-10-18T09:30:06.395Z,23.22
2018-10-18T09:32:34.803Z,22.30
2018-10-18T09:35:03.303Z,26.52
2018-10-18T09:37:31.781Z,26.87
2018-10-18T09:40:00.296Z,27.13
2018-10-18T09:42:28.849Z,28.65
2018-10-18T09:44:57.411Z,28.75
2018-10-18T09:47:25.809Z,29.27
2018-10-18T09:49:54.324Z,28.05
2018-10-18T09:52:22.773Z,27.98
2018-10-18T09:54:51.254Z,29.77
2018-10-18T09:57:19.697Z,29.42
2018-10-18T09:59:48.171Z,26.77
2018-10-18T10:02:22.067Z,27.65
2018-10-18T10:04:50.583Z,27.02
2018-10-18T10:07:19.127Z,28.10
2018-10-18T10:09:47.628Z,27.35
2018-10-18T10:12:16.092Z,27.15
2018-10-18T10:14:44.586Z,28.83
2018-10-18T10:17:13.128Z,28.85
2018-10-18T10:19:41.550Z,28.15
2018-10-18T10:22:10.044Z,27.77
2018-10-18T10:24:38.585Z,27.65
2018-10-18T10:27:07.106Z,27.58
2018-10-18T10:29:35.575Z,28.60
2018-10-18T10:32:04.132Z,28.27
2018-10-18T10:34:32.610Z,29.40
2018-10-18T10:37:01.147Z,30.90
2018-10-18T10:39:29.628Z,28.87
2018-10-18T10:41:58.094Z,28.00
2018-10-18T10:44:26.654Z,29.95
2018-10-18T10:46:55.108Z,30.30
2018-10-18T10:49:23.600Z,27.87
2018-10-18T10:51:52.100Z,28.00
2018-10-18T10:54:20.598Z,28.07
2018-10-18T10:56:49.200Z,27.65
2018-10-18T10:59:18.831Z,31.12
2018-10-18T11:01:47.323Z,30.70
2018-10-18T11:04:15.821Z,30.27
2018-10-18T11:06:44.286Z,30.23
2018-10-18T11:09:19.248Z,29.70
2018-10-18T11:11:47.776Z,31.62
2018-10-18T11:14:16.320Z,30.80
2018-10-18T11:16:44.731Z,31.33
2018-10-18T11:19:13.548Z,32.17
2018-10-18T11:21:42.103Z,33.43
2018-10-18T11:24:10.696Z,35.17
2018-10-18T11:26:39.112Z,32.33
2018-10-18T11:29:07.601Z,33.43
2018-10-18T11:31:36.042Z,32.60
2018-10-18T11:34:04.619Z,30.47
2018-10-18T11:36:33.149Z,29.70
2018-10-18T11:39:01.638Z,27.63
2018-10-18T11:41:30.180Z,29.70
2018-10-18T11:43:58.658Z,32.13
2018-10-18T11:46:27.125Z,28.33
2018-10-18T11:48:55.569Z,25.03
2018-10-18T11:51:24.121Z,32.43
2018-10-18T11:53:52.577Z,27.57
2018-10-18T11:56:21.053Z,31.30
2018-10-18T11:58:49.502Z,36.43
2018-10-18T12:01:18.215Z,27.60
2018-10-18T12:03:46.637Z,28.17
2018-10-18T12:06:15.188Z,28.23
2018-10-18T12:08:43.684Z,28.73
2018-10-18T12:11:12.165Z,27.40
2018-10-18T12:13:40.666Z,28.23
2018-10-18T12:16:09.153Z,28.70
2018-10-18T12:18:37.617Z,33.80
2018-10-18T12:21:06.125Z,29.10
2018-10-18T12:23:34.606Z,27.17
2018-10-18T12:26:03.077Z,30.53
2018-10-18T12:28:31.555Z,29.83
2018-10-18T12:31:00.005Z,30.30
2018-10-18T12:33:28.526Z,30.10
2018-10-18T12:35:57.017Z,29.13
2018-10-18T12:38:25.538Z,30.83
2018-10-18T12:40:54.121Z,34.93
2018-10-18T12:43:22.701Z,36.97
2018-10-18T12:45:51.149Z,31.03
2018-10-18T12:48:19.883Z,30.20
2018-10-18T12:50:48.219Z,32.67
2018-10-18T12:53:16.689Z,31.67
2018-10-18T12:55:45.213Z,33.37
2018-10-18T12:58:13.685Z,34.33
2018-10-18T13:00:42.165Z,38.47
2018-10-18T13:03:10.645Z,35.07
2018-10-18T13:05:39.105Z,32.70
2018-10-18T13:08:07.602Z,37.07
2018-10-18T13:10:36.150Z,36.90
2018-10-18T13:13:04.621Z,38.30
2018-10-18T13:15:33.082Z,37.27
2018-10-18T13:18:01.572Z,37.90
2018-10-18T13:20:30.044Z,32.73
2018-10-18T13:22:58.534Z,36.40
2018-10-18T13:25:27.062Z,39.83
2018-10-18T13:27:55.473Z,37.20
2018-10-18T13:30:23.934Z,36.97
2018-10-18T13:32:52.445Z,38.97
2018-10-18T13:35:20.921Z,38.17
2018-10-18T13:37:49.384Z,43.77
2018-10-18T13:40:17.834Z,34.30
2018-10-18T13:42:46.330Z,38.87
2018-10-18T13:45:14.830Z,43.20
2018-10-18T13:47:43.329Z,41.83
2018-10-18T13:50:11.828Z,41.60
2018-10-18T13:52:40.378Z,38.77
2018-10-18T13:55:08.878Z,35.77
2018-10-18T13:57:37.374Z,42.13
2018-10-18T14:00:23.931Z,46.43
2018-10-18T14:02:53.360Z,41.57
2018-10-18T14:05:22.090Z,43.40
2018-10-18T14:07:51.790Z,45.93
2018-10-18T14:10:20.177Z,40.07
2018-10-18T14:12:48.720Z,41.87
2018-10-18T14:15:17.250Z,37.77
2018-10-18T14:17:45.866Z,41.03
2018-10-18T14:20:14.281Z,39.23
2018-10-18T14:22:42.766Z,37.97
2018-10-18T14:25:11.307Z,35.50
2018-10-18T14:27:39.887Z,45.00
2018-10-18T14:30:10.040Z,36.40
2018-10-18T14:32:38.757Z,40.73
2018-10-18T14:35:08.387Z,41.60
2018-10-18T14:37:36.853Z,39.23
2018-10-18T14:40:06.049Z,41.10
2018-10-18T14:42:34.591Z,42.17
2018-10-18T14:45:03.147Z,39.30
2018-10-18T14:47:31.610Z,40.77
2018-10-18T14:50:00.082Z,34.90
2018-10-18T14:52:28.585Z,34.70
2018-10-18T14:54:57.092Z,43.50
2018-10-18T14:57:25.642Z,36.90
2018-10-18T14:59:54.071Z,37.87
2018-10-18T15:02:22.553Z,37.17
2018-10-18T15:04:51.070Z,47.50
2018-10-18T15:07:19.640Z,42.07
2018-10-18T15:09:48.126Z,38.40
2018-10-18T15:12:16.573Z,41.17
2018-10-18T15:14:45.054Z,41.80
2018-10-18T15:17:13.540Z,41.47
2018-10-18T15:19:42.092Z,37.97
2018-10-18T15:22:10.513Z,40.60
2018-10-18T15:24:39.016Z,40.67
2018-10-18T15:27:07.608Z,44.53
2018-10-18T15:29:36.058Z,40.40
2018-10-18T15:32:04.676Z,40.53
2018-10-18T15:34:33.122Z,37.93
2018-10-18T15:37:01.625Z,39.27
2018-10-18T15:39:30.167Z,39.93
2018-10-18T15:41:58.714Z,40.70
2018-10-18T15:44:27.324Z,37.40
2018-10-18T15:46:55.898Z,41.07
2018-10-18T15:49:24.350Z,35.43
2018-10-18T15:51:52.926Z,36.30
2018-10-18T15:54:21.534Z,37.43
2018-10-18T15:56:49.975Z,35.67
2018-10-18T15:59:18.586Z,33.37
2018-10-18T16:01:47.084Z,30.50
2018-10-18T16:04:15.660Z,33.57
2018-10-18T16:06:44.150Z,28.23
2018-10-18T16:09:13.923Z,35.20
2018-10-18T16:11:42.506Z,29.50
2018-10-18T16:14:11.102Z,33.33
2018-10-18T16:16:39.602Z,32.77
2018-10-18T16:19:08.131Z,33.27
2018-10-18T16:21:36.692Z,33.57
2018-10-18T16:24:05.782Z,36.57
2018-10-18T16:26:34.325Z,32.67
2018-10-18T16:29:02.789Z,37.63
2018-10-18T16:31:31.283Z,33.80
2018-10-18T16:34:00.528Z,36.93
2018-10-18T16:36:29.302Z,34.67
2018-10-18T16:38:57.810Z,35.60
2018-10-18T16:41:26.837Z,36.73
2018-10-18T16:43:55.150Z,35.73
2018-10-18T16:46:23.661Z,36.40
2018-10-18T16:48:52.211Z,38.50
2018-10-18T16:51:20.707Z,41.93
2018-10-18T16:53:49.309Z,35.30
2018-10-18T16:56:17.891Z,36.63
2018-10-18T16:58:46.345Z,38.70
2018-10-18T17:01:14.886Z,36.03
2018-10-18T17:03:44.922Z,36.70
2018-10-18T17:06:14.085Z,39.60
2018-10-18T17:08:42.670Z,39.07
2018-10-18T17:11:11.265Z,38.23
2018-10-18T17:13:39.752Z,42.07
2018-10-18T17:16:08.380Z,40.27
2018-10-18T17:18:36.887Z,42.47
2018-10-18T17:21:05.897Z,41.53
2018-10-18T17:23:34.511Z,45.83
2018-10-18T17:26:03.131Z,44.53
2018-10-18T17:28:31.674Z,45.17
2018-10-18T17:31:00.421Z,44.10
2018-10-18T17:33:29.299Z,45.17
2018-10-18T17:35:58.302Z,47.60
2018-10-18T17:38:27.202Z,37.53
2018-10-18T17:40:56.513Z,46.40
2018-10-18T17:43:25.661Z,44.33
2018-10-18T17:45:54.516Z,43.40
2018-10-18T17:48:23.412Z,47.53
2018-10-18T17:50:52.341Z,47.47
2018-10-18T17:53:21.203Z,47.87
2018-10-18T17:55:50.580Z,41.83
2018-10-18T17:58:19.569Z,45.67
2018-10-18T18:00:49.205Z,41.67
2018-10-18T18:03:18.896Z,46.67
2018-10-18T18:05:47.821Z,46.97
2018-10-18T18:08:16.884Z,46.67
2018-10-18T18:10:45.797Z,41.70
2018-10-18T18:13:14.706Z,40.90
2018-10-18T18:15:44.512Z,33.20
2018-10-18T18:18:14.524Z,35.37
2018-10-18T18:20:43.628Z,40.70
2018-10-18T18:23:13.509Z,38.20
2018-10-18T18:25:42.537Z,45.87
2018-10-18T18:28:12.542Z,40.13
2018-10-18T18:30:42.587Z,43.63
2018-10-18T18:33:13.756Z,45.33
2018-10-18T18:35:42.799Z,51.77
2018-10-18T18:38:11.800Z,47.10
2018-10-18T18:40:40.795Z,45.53
2018-10-18T18:43:10.982Z,44.17
2018-10-18T18:45:40.055Z,39.37
2018-10-18T18:48:09.930Z,43.53
2018-10-18T18:50:40.108Z,46.37
2018-10-18T18:53:09.684Z,45.17
2018-10-18T18:55:40.376Z,43.13
2018-10-18T18:58:10.069Z,45.23
2018-10-18T19:00:39.506Z,42.67
2018-10-18T19:03:09.392Z,45.00
2018-10-18T19:05:39.229Z,40.03
2018-10-18T19:10:36.769Z,44.80
2018-10-18T19:13:06.950Z,46.30
2018-10-18T19:15:36.532Z,46.93
2018-10-18T19:18:05.667Z,52.27
2018-10-18T19:20:34.723Z,52.97
2018-10-18T19:23:04.955Z,54.80
2018-10-18T19:25:34.954Z,51.57
2018-10-18T19:28:04.139Z,51.10
2018-10-18T19:30:33.171Z,61.37
2018-10-18T19:33:02.529Z,54.87
2018-10-18T19:35:31.731Z,51.43
2018-10-18T19:38:00.813Z,50.03
2018-10-18T19:40:30.290Z,50.67
2018-10-18T19:42:59.324Z,51.00
2018-10-18T19:45:29.081Z,49.00
2018-10-18T19:47:58.887Z,51.67
2018-10-18T19:50:28.099Z,51.70
2018-10-18T19:52:57.096Z,53.80
2018-10-18T19:55:26.520Z,58.20
2018-10-18T19:57:55.840Z,55.87
2018-10-18T20:00:24.761Z,57.43
2018-10-18T20:02:54.707Z,63.80
2018-10-18T20:05:24.272Z,57.07
2018-10-18T20:07:53.390Z,61.73
2018-10-18T20:10:22.348Z,58.03
2018-10-18T20:12:51.964Z,54.87
2018-10-18T20:15:20.952Z,50.23
2018-10-18T20:17:50.731Z,55.53
2018-10-18T20:20:19.656Z,76.30
2018-10-18T20:22:49.577Z,59.63
2018-10-18T20:25:18.503Z,59.03
2018-10-18T20:27:47.697Z,51.87
2018-10-18T20:30:16.711Z,54.63
2018-10-18T20:32:45.539Z,51.40
2018-10-18T20:35:14.375Z,53.23
2018-10-18T20:37:43.240Z,51.37
2018-10-18T20:40:14.790Z,49.90
2018-10-18T20:42:43.746Z,48.23
2018-10-18T20:45:17.838Z,49.90
2018-10-18T20:47:46.711Z,45.30
2018-10-18T20:50:15.410Z,45.70
2018-10-18T20:52:44.070Z,46.03
2018-10-18T20:55:12.965Z,45.20
2018-10-18T20:57:41.535Z,47.10
2018-10-18T21:00:10.446Z,48.57
2018-10-18T21:02:38.910Z,49.27
2018-10-18T21:05:07.581Z,46.57
2018-10-18T21:07:36.061Z,50.70
2018-10-18T21:10:04.709Z,49.23
2018-10-18T21:12:33.177Z,47.70
2018-10-18T21:15:01.694Z,48.47
2018-10-18T21:17:30.578Z,47.37
2018-10-18T21:19:59.055Z,54.27
2018-10-18T21:22:27.519Z,54.50
2018-10-18T21:24:55.987Z,44.10
2018-10-18T21:27:24.489Z,43.90
2018-10-18T21:29:52.949Z,47.23
2018-10-18T21:32:21.381Z,48.07
2018-10-18T21:34:50.144Z,50.30
2018-10-18T21:37:18.583Z,43.17
2018-10-18T21:39:47.021Z,41.43
2018-10-18T21:42:15.474Z,42.07
2018-10-18T21:44:44.061Z,39.03
2018-10-18T21:47:12.805Z,42.20
2018-10-18T21:49:41.269Z,42.33
2018-10-18T21:52:09.715Z,42.77
2018-10-18T21:54:38.217Z,42.40
2018-10-18T21:57:06.741Z,79.53
2018-10-18T21:59:35.295Z,82.77
2018-10-18T22:02:03.830Z,52.90
2018-10-18T22:04:32.274Z,50.70
2018-10-18T22:07:00.789Z,51.90
2018-10-18T22:09:29.650Z,58.00
2018-10-18T22:11:58.079Z,55.97
2018-10-18T22:14:26.596Z,57.47
2018-10-18T22:16:55.069Z,53.07
2018-10-18T22:19:23.536Z,51.73
2018-10-18T22:21:51.955Z,50.27
2018-10-18T22:24:20.425Z,48.90
2018-10-18T22:26:48.975Z,47.00
2018-10-18T22:29:17.463Z,49.13
2018-10-18T22:31:45.915Z,47.63
2018-10-18T22:34:14.361Z,46.80
2018-10-18T22:36:42.972Z,46.53
2018-10-18T22:39:12.014Z,46.37
2018-10-18T22:41:40.890Z,49.33
2018-10-18T22:44:10.193Z,49.57
2018-10-18T22:46:38.703Z,49.30
2018-10-18T22:49:07.193Z,56.93
2018-10-18T22:51:36.046Z,51.67
2018-10-18T22:54:04.760Z,50.30
2018-10-18T22:56:33.299Z,73.13
2018-10-18T22:59:01.797Z,65.47
2018-10-18T23:01:30.254Z,58.83
2018-10-18T23:03:58.940Z,53.63
2018-10-18T23:06:27.423Z,52.30
2018-10-18T23:08:55.949Z,50.53
2018-10-18T23:11:24.428Z,52.40
2018-10-18T23:13:52.884Z,52.00
2018-10-18T23:16:21.347Z,50.73
2018-10-18T23:18:49.811Z,50.63
2018-10-18T23:21:18.555Z,48.67
2018-10-18T23:23:47.004Z,54.23
2018-10-18T23:26:15.450Z,47.07
2018-10-18T23:28:43.925Z,47.63
2018-10-18T23:31:12.337Z,52.10
2018-10-18T23:33:40.785Z,52.50
2018-10-18T23:36:09.278Z,49.83
2018-10-18T23:38:37.765Z,48.80
2018-10-18T23:41:07.077Z,50.47
2018-10-18T23:43:35.566Z,47.67
2018-10-18T23:46:04.790Z,45.67
2018-10-18T23:48:33.258Z,48.57
2018-10-18T23:51:01.812Z,48.93
2018-10-18T23:53:30.282Z,48.03
2018-10-18T23:55:58.728Z,45.37
2018-10-18T23:58:27.181Z,49.27
